sensor_id;sensor_type;location;lat;lon;timestamp;P1;durP1;ratioP1;P2;durP2;ratioP2
1154;SDS011;566;48.414;9.118;2023-06-14T00:00:14;8.45;;;4.68;;
1154;SDS011;566;48.414;9.118;2023-06-14T00:02:40;9.43;;;5.05;;
1154;SDS011;566;48.414;9.118;2023-06-14T00:05:06;9.55;;;4.43;;
1154;SDS011;566;48.414;9.118;2023-06-14T00:07:35;8.30;;;4.50;;
1154;SDS011;566;48.414;9.118;2023-06-14T00:10:08;9.18;;;4.28;;
1154;SDS011;566;48.414;9.118;2023-06-14T00:12:35;9.32;;;4.60;;
1154;SDS011;566;48.414;9.118;2023-06-14T00:15:01;7.93;;;4.85;;
1154;SDS011;566;48.414;9.118;2023-06-14T00:17:27;9.10;;;4.38;;
1154;SDS011;566;48.414;9.118;2023-06-14T00:19:56;7.05;;;4.20;;
1154;SDS011;566;48.414;9.118;2023-06-14T00:22:23;7.70;;;4.47;;
1154;SDS011;566;48.414;9.118;2023-06-14T00:24:50;8.55;;;4.53;;
1154;SDS011;566;48.414;9.118;2023-06-14T00:27:16;6.90;;;3.95;;
1154;SDS011;566;48.414;9.118;2023-06-14T00:29:41;7.82;;;4.43;;
1154;SDS011;566;48.414;9.118;2023-06-14T00:32:07;7.22;;;4.40;;
1154;SDS011;566;48.414;9.118;2023-06-14T00:34:33;7.53;;;4.63;;
1154;SDS011;566;48.414;9.118;2023-06-14T00:36:59;10.70;;;4.35;;
1154;SDS011;566;48.414;9.118;2023-06-14T00:39:24;9.13;;;4.65;;
1154;SDS011;566;48.414;9.118;2023-06-14T00:41:50;7.97;;;3.88;;
1154;SDS011;566;48.414;9.118;2023-06-14T00:44:16;6.97;;;4.38;;
1154;SDS011;566;48.414;9.118;2023-06-14T00:46:42;7.00;;;4.20;;
1154;SDS011;566;48.414;9.118;2023-06-14T00:49:09;13.45;;;4.60;;
1154;SDS011;566;48.414;9.118;2023-06-14T00:51:35;8.02;;;4.68;;
1154;SDS011;566;48.414;9.118;2023-06-14T00:54:02;8.10;;;4.55;;
1154;SDS011;566;48.414;9.118;2023-06-14T00:56:28;7.53;;;4.40;;
1154;SDS011;566;48.414;9.118;2023-06-14T00:58:54;7.95;;;4.43;;
1154;SDS011;566;48.414;9.118;2023-06-14T01:01:21;7.55;;;4.30;;
1154;SDS011;566;48.414;9.118;2023-06-14T01:03:47;9.80;;;4.15;;
1154;SDS011;566;48.414;9.118;2023-06-14T01:06:20;8.05;;;4.60;;
1154;SDS011;566;48.414;9.118;2023-06-14T01:12:07;9.05;;;4.30;;
1154;SDS011;566;48.414;9.118;2023-06-14T01:14:41;7.82;;;4.40;;
1154;SDS011;566;48.414;9.118;2023-06-14T01:17:07;10.30;;;4.57;;
1154;SDS011;566;48.414;9.118;2023-06-14T01:19:41;8.57;;;4.43;;
1154;SDS011;566;48.414;9.118;2023-06-14T01:22:07;8.20;;;4.15;;
1154;SDS011;566;48.414;9.118;2023-06-14T01:24:33;8.30;;;4.00;;
1154;SDS011;566;48.414;9.118;2023-06-14T01:27:00;7.50;;;4.55;;
1154;SDS011;566;48.414;9.118;2023-06-14T01:29:27;10.05;;;4.68;;
1154;SDS011;566;48.414;9.118;2023-06-14T01:32:00;7.15;;;4.35;;
1154;SDS011;566;48.414;9.118;2023-06-14T01:34:27;8.68;;;4.50;;
1154;SDS011;566;48.414;9.118;2023-06-14T01:36:55;11.13;;;4.72;;
1154;SDS011;566;48.414;9.118;2023-06-14T01:39:24;7.13;;;4.43;;
1154;SDS011;566;48.414;9.118;2023-06-14T01:41:53;7.43;;;4.57;;
1154;SDS011;566;48.414;9.118;2023-06-14T01:44:23;8.32;;;4.57;;
1154;SDS011;566;48.414;9.118;2023-06-14T01:46:49;8.45;;;4.63;;
1154;SDS011;566;48.414;9.118;2023-06-14T01:49:16;6.40;;;4.28;;
1154;SDS011;566;48.414;9.118;2023-06-14T01:51:42;6.80;;;4.40;;
1154;SDS011;566;48.414;9.118;2023-06-14T01:54:07;9.20;;;4.47;;
1154;SDS011;566;48.414;9.118;2023-06-14T01:56:33;7.38;;;4.63;;
1154;SDS011;566;48.414;9.118;2023-06-14T01:58:58;5.85;;;4.05;;
1154;SDS011;566;48.414;9.118;2023-06-14T02:01:24;7.72;;;4.70;;
1154;SDS011;566;48.414;9.118;2023-06-14T02:03:49;7.78;;;4.60;;
1154;SDS011;566;48.414;9.118;2023-06-14T02:06:18;7.45;;;4.20;;
1154;SDS011;566;48.414;9.118;2023-06-14T02:08:44;7.13;;;4.32;;
1154;SDS011;566;48.414;9.118;2023-06-14T02:11:09;8.75;;;4.30;;
1154;SDS011;566;48.414;9.118;2023-06-14T02:13:35;7.88;;;4.82;;
1154;SDS011;566;48.414;9.118;2023-06-14T02:16:01;8.48;;;4.55;;
1154;SDS011;566;48.414;9.118;2023-06-14T02:18:26;7.07;;;4.53;;
1154;SDS011;566;48.414;9.118;2023-06-14T02:20:52;8.13;;;4.13;;
1154;SDS011;566;48.414;9.118;2023-06-14T02:23:18;8.15;;;4.50;;
1154;SDS011;566;48.414;9.118;2023-06-14T02:25:46;8.32;;;4.38;;
1154;SDS011;566;48.414;9.118;2023-06-14T02:28:12;7.03;;;4.63;;
1154;SDS011;566;48.414;9.118;2023-06-14T02:30:37;7.43;;;4.30;;
1154;SDS011;566;48.414;9.118;2023-06-14T02:33:03;8.63;;;4.28;;
1154;SDS011;566;48.414;9.118;2023-06-14T02:35:29;7.43;;;4.40;;
1154;SDS011;566;48.414;9.118;2023-06-14T02:37:55;6.13;;;4.07;;
1154;SDS011;566;48.414;9.118;2023-06-14T02:40:21;6.85;;;4.25;;
1154;SDS011;566;48.414;9.118;2023-06-14T02:42:47;9.20;;;4.65;;
1154;SDS011;566;48.414;9.118;2023-06-14T02:45:12;7.22;;;4.47;;
1154;SDS011;566;48.414;9.118;2023-06-14T02:47:38;7.25;;;4.10;;
1154;SDS011;566;48.414;9.118;2023-06-14T02:50:04;9.07;;;3.95;;
1154;SDS011;566;48.414;9.118;2023-06-14T02:52:30;7.25;;;4.20;;
1154;SDS011;566;48.414;9.118;2023-06-14T02:54:58;6.97;;;4.53;;
1154;SDS011;566;48.414;9.118;2023-06-14T02:57:24;7.22;;;4.35;;
1154;SDS011;566;48.414;9.118;2023-06-14T02:59:49;8.43;;;4.70;;
1154;SDS011;566;48.414;9.118;2023-06-14T03:02:15;6.70;;;4.25;;
1154;SDS011;566;48.414;9.118;2023-06-14T03:04:40;6.28;;;4.03;;
1154;SDS011;566;48.414;9.118;2023-06-14T03:07:09;7.20;;;4.15;;
1154;SDS011;566;48.414;9.118;2023-06-14T03:09:36;9.32;;;3.97;;
1154;SDS011;566;48.414;9.118;2023-06-14T03:12:02;7.57;;;4.25;;
1154;SDS011;566;48.414;9.118;2023-06-14T03:14:28;6.88;;;4.88;;
1154;SDS011;566;48.414;9.118;2023-06-14T03:16:55;8.07;;;4.25;;
1154;SDS011;566;48.414;9.118;2023-06-14T03:19:22;8.93;;;4.28;;
1154;SDS011;566;48.414;9.118;2023-06-14T03:21:48;5.53;;;3.70;;
1154;SDS011;566;48.414;9.118;2023-06-14T03:24:14;9.18;;;4.25;;
1154;SDS011;566;48.414;9.118;2023-06-14T03:26:41;7.78;;;4.05;;
1154;SDS011;566;48.414;9.118;2023-06-14T03:29:07;6.35;;;4.25;;
1154;SDS011;566;48.414;9.118;2023-06-14T03:31:33;8.23;;;4.47;;
1154;SDS011;566;48.414;9.118;2023-06-14T03:34:00;5.88;;;3.88;;
1154;SDS011;566;48.414;9.118;2023-06-14T03:36:26;6.88;;;4.28;;
1154;SDS011;566;48.414;9.118;2023-06-14T03:38:53;8.45;;;4.03;;
1154;SDS011;566;48.414;9.118;2023-06-14T03:41:19;6.78;;;3.80;;
1154;SDS011;566;48.414;9.118;2023-06-14T03:43:45;8.80;;;4.45;;
1154;SDS011;566;48.414;9.118;2023-06-14T03:46:11;6.55;;;3.88;;
1154;SDS011;566;48.414;9.118;2023-06-14T03:48:36;6.53;;;3.90;;
1154;SDS011;566;48.414;9.118;2023-06-14T03:51:02;7.40;;;3.97;;
1154;SDS011;566;48.414;9.118;2023-06-14T03:53:27;7.97;;;4.10;;
1154;SDS011;566;48.414;9.118;2023-06-14T03:55:54;9.07;;;4.25;;
1154;SDS011;566;48.414;9.118;2023-06-14T03:58:20;6.57;;;4.07;;
1154;SDS011;566;48.414;9.118;2023-06-14T04:00:46;7.28;;;4.03;;
1154;SDS011;566;48.414;9.118;2023-06-14T04:03:12;6.90;;;4.28;;
1154;SDS011;566;48.414;9.118;2023-06-14T04:05:41;8.07;;;4.15;;
1154;SDS011;566;48.414;9.118;2023-06-14T04:08:07;8.05;;;4.35;;
1154;SDS011;566;48.414;9.118;2023-06-14T04:10:39;12.38;;;4.30;;
1154;SDS011;566;48.414;9.118;2023-06-14T04:13:05;8.80;;;4.25;;
1154;SDS011;566;48.414;9.118;2023-06-14T04:15:32;8.35;;;4.25;;
1154;SDS011;566;48.414;9.118;2023-06-14T04:17:58;8.43;;;5.35;;
1154;SDS011;566;48.414;9.118;2023-06-14T04:20:24;10.82;;;4.05;;
1154;SDS011;566;48.414;9.118;2023-06-14T04:22:50;7.57;;;4.47;;
1154;SDS011;566;48.414;9.118;2023-06-14T04:25:17;7.03;;;4.30;;
1154;SDS011;566;48.414;9.118;2023-06-14T04:27:43;7.80;;;4.20;;
1154;SDS011;566;48.414;9.118;2023-06-14T04:30:12;9.35;;;4.63;;
1154;SDS011;566;48.414;9.118;2023-06-14T04:32:38;6.43;;;4.20;;
1154;SDS011;566;48.414;9.118;2023-06-14T04:35:07;6.07;;;3.72;;
1154;SDS011;566;48.414;9.118;2023-06-14T04:37:36;6.78;;;4.43;;
1154;SDS011;566;48.414;9.118;2023-06-14T04:40:06;5.97;;;4.18;;
1154;SDS011;566;48.414;9.118;2023-06-14T04:42:35;8.38;;;4.47;;
1154;SDS011;566;48.414;9.118;2023-06-14T04:45:01;6.75;;;4.03;;
1154;SDS011;566;48.414;9.118;2023-06-14T04:47:27;11.75;;;5.07;;
1154;SDS011;566;48.414;9.118;2023-06-14T04:49:54;11.50;;;4.60;;
1154;SDS011;566;48.414;9.118;2023-06-14T04:52:21;10.23;;;5.03;;
1154;SDS011;566;48.414;9.118;2023-06-14T04:54:48;10.73;;;5.30;;
1154;SDS011;566;48.414;9.118;2023-06-14T04:57:13;13.00;;;4.80;;
1154;SDS011;566;48.414;9.118;2023-06-14T04:59:42;8.95;;;4.60;;
1154;SDS011;566;48.414;9.118;2023-06-14T05:02:09;7.88;;;4.53;;
1154;SDS011;566;48.414;9.118;2023-06-14T05:04:35;10.02;;;4.85;;
1154;SDS011;566;48.414;9.118;2023-06-14T05:07:04;8.45;;;4.75;;
1154;SDS011;566;48.414;9.118;2023-06-14T05:09:36;9.23;;;4.72;;
1154;SDS011;566;48.414;9.118;2023-06-14T05:12:02;10.40;;;4.50;;
1154;SDS011;566;48.414;9.118;2023-06-14T05:14:28;10.85;;;4.07;;
1154;SDS011;566;48.414;9.118;2023-06-14T05:16:57;10.85;;;5.00;;
1154;SDS011;566;48.414;9.118;2023-06-14T05:19:22;9.20;;;4.90;;
1154;SDS011;566;48.414;9.118;2023-06-14T05:21:48;9.10;;;4.72;;
1154;SDS011;566;48.414;9.118;2023-06-14T05:24:14;8.18;;;4.43;;
1154;SDS011;566;48.414;9.118;2023-06-14T05:26:39;7.35;;;4.55;;
1154;SDS011;566;48.414;9.118;2023-06-14T05:29:05;7.90;;;4.45;;
1154;SDS011;566;48.414;9.118;2023-06-14T05:31:31;8.48;;;4.38;;
1154;SDS011;566;48.414;9.118;2023-06-14T05:33:56;7.88;;;4.45;;
1154;SDS011;566;48.414;9.118;2023-06-14T05:36:22;7.25;;;4.10;;
1154;SDS011;566;48.414;9.118;2023-06-14T05:38:48;8.18;;;4.13;;
1154;SDS011;566;48.414;9.118;2023-06-14T05:41:13;10.05;;;4.90;;
1154;SDS011;566;48.414;9.118;2023-06-14T05:43:39;9.25;;;4.38;;
1154;SDS011;566;48.414;9.118;2023-06-14T05:46:05;6.68;;;4.10;;
1154;SDS011;566;48.414;9.118;2023-06-14T05:48:30;7.95;;;4.30;;
1154;SDS011;566;48.414;9.118;2023-06-14T05:50:59;12.95;;;5.28;;
1154;SDS011;566;48.414;9.118;2023-06-14T05:53:25;7.88;;;4.63;;
1154;SDS011;566;48.414;9.118;2023-06-14T05:55:50;8.27;;;4.63;;
1154;SDS011;566;48.414;9.118;2023-06-14T05:58:23;9.18;;;4.72;;
1154;SDS011;566;48.414;9.118;2023-06-14T06:00:48;9.07;;;4.85;;
1154;SDS011;566;48.414;9.118;2023-06-14T06:03:14;8.55;;;5.45;;
1154;SDS011;566;48.414;9.118;2023-06-14T06:05:39;7.85;;;5.00;;
1154;SDS011;566;48.414;9.118;2023-06-14T06:08:05;8.55;;;5.22;;
1154;SDS011;566;48.414;9.118;2023-06-14T06:10:31;10.60;;;5.55;;
1154;SDS011;566;48.414;9.118;2023-06-14T06:12:56;8.85;;;5.15;;
1154;SDS011;566;48.414;9.118;2023-06-14T06:15:22;9.02;;;5.07;;
1154;SDS011;566;48.414;9.118;2023-06-14T06:17:47;7.05;;;4.63;;
1154;SDS011;566;48.414;9.118;2023-06-14T06:20:13;9.38;;;5.30;;
1154;SDS011;566;48.414;9.118;2023-06-14T06:22:38;9.45;;;5.38;;
1154;SDS011;566;48.414;9.118;2023-06-14T06:25:04;8.93;;;5.38;;
1154;SDS011;566;48.414;9.118;2023-06-14T06:27:31;9.52;;;5.00;;
1154;SDS011;566;48.414;9.118;2023-06-14T06:29:57;11.20;;;5.30;;
1154;SDS011;566;48.414;9.118;2023-06-14T06:32:23;8.13;;;5.25;;
1154;SDS011;566;48.414;9.118;2023-06-14T06:34:48;7.65;;;4.97;;
1154;SDS011;566;48.414;9.118;2023-06-14T06:37:15;9.60;;;5.60;;
1154;SDS011;566;48.414;9.118;2023-06-14T06:39:40;9.60;;;5.07;;
1154;SDS011;566;48.414;9.118;2023-06-14T06:42:06;10.27;;;5.38;;
1154;SDS011;566;48.414;9.118;2023-06-14T06:44:32;9.48;;;5.20;;
1154;SDS011;566;48.414;9.118;2023-06-14T06:46:58;8.82;;;5.00;;
1154;SDS011;566;48.414;9.118;2023-06-14T06:49:24;9.82;;;5.30;;
1154;SDS011;566;48.414;9.118;2023-06-14T06:52:00;7.78;;;5.45;;
1154;SDS011;566;48.414;9.118;2023-06-14T06:54:30;8.63;;;5.30;;
1154;SDS011;566;48.414;9.118;2023-06-14T06:56:56;10.07;;;5.25;;
1154;SDS011;566;48.414;9.118;2023-06-14T06:59:21;11.73;;;5.18;;
1154;SDS011;566;48.414;9.118;2023-06-14T07:01:47;9.82;;;5.30;;
1154;SDS011;566;48.414;9.118;2023-06-14T07:04:13;9.32;;;4.93;;
1154;SDS011;566;48.414;9.118;2023-06-14T07:06:41;10.23;;;5.05;;
1154;SDS011;566;48.414;9.118;2023-06-14T07:09:07;8.43;;;4.90;;
1154;SDS011;566;48.414;9.118;2023-06-14T07:11:37;8.27;;;4.85;;
1154;SDS011;566;48.414;9.118;2023-06-14T07:14:04;8.15;;;4.40;;
1154;SDS011;566;48.414;9.118;2023-06-14T07:16:30;9.93;;;4.90;;
1154;SDS011;566;48.414;9.118;2023-06-14T07:18:55;8.25;;;5.20;;
1154;SDS011;566;48.414;9.118;2023-06-14T07:21:21;10.00;;;4.78;;
1154;SDS011;566;48.414;9.118;2023-06-14T07:23:46;8.93;;;4.53;;
1154;SDS011;566;48.414;9.118;2023-06-14T07:26:15;8.68;;;4.95;;
1154;SDS011;566;48.414;9.118;2023-06-14T07:28:40;8.07;;;4.68;;
1154;SDS011;566;48.414;9.118;2023-06-14T07:31:09;8.55;;;4.50;;
1154;SDS011;566;48.414;9.118;2023-06-14T07:33:35;7.55;;;4.57;;
1154;SDS011;566;48.414;9.118;2023-06-14T07:36:01;7.30;;;4.68;;
1154;SDS011;566;48.414;9.118;2023-06-14T07:38:26;7.05;;;4.28;;
1154;SDS011;566;48.414;9.118;2023-06-14T07:40:52;8.10;;;4.40;;
1154;SDS011;566;48.414;9.118;2023-06-14T07:43:18;6.45;;;4.32;;
1154;SDS011;566;48.414;9.118;2023-06-14T07:45:43;7.55;;;4.50;;
1154;SDS011;566;48.414;9.118;2023-06-14T07:48:09;8.90;;;4.80;;
1154;SDS011;566;48.414;9.118;2023-06-14T07:50:35;10.68;;;5.57;;
1154;SDS011;566;48.414;9.118;2023-06-14T07:53:00;8.80;;;5.05;;
1154;SDS011;566;48.414;9.118;2023-06-14T07:55:26;10.25;;;5.15;;
1154;SDS011;566;48.414;9.118;2023-06-14T07:57:55;8.10;;;4.47;;
1154;SDS011;566;48.414;9.118;2023-06-14T08:00:21;9.30;;;4.85;;
1154;SDS011;566;48.414;9.118;2023-06-14T08:02:46;8.80;;;4.68;;
1154;SDS011;566;48.414;9.118;2023-06-14T08:05:12;6.85;;;4.25;;
1154;SDS011;566;48.414;9.118;2023-06-14T08:07:38;8.43;;;4.72;;
1154;SDS011;566;48.414;9.118;2023-06-14T08:10:08;10.45;;;4.95;;
1154;SDS011;566;48.414;9.118;2023-06-14T08:12:34;7.78;;;4.63;;
1154;SDS011;566;48.414;9.118;2023-06-14T08:15:00;9.70;;;4.50;;
1154;SDS011;566;48.414;9.118;2023-06-14T08:17:29;8.07;;;4.40;;
1154;SDS011;566;48.414;9.118;2023-06-14T08:19:55;8.90;;;4.60;;
1154;SDS011;566;48.414;9.118;2023-06-14T08:22:22;8.77;;;4.03;;
1154;SDS011;566;48.414;9.118;2023-06-14T08:24:49;9.02;;;4.32;;
1154;SDS011;566;48.414;9.118;2023-06-14T08:27:15;10.40;;;4.60;;
1154;SDS011;566;48.414;9.118;2023-06-14T08:29:40;8.20;;;4.43;;
1154;SDS011;566;48.414;9.118;2023-06-14T08:32:06;7.65;;;5.05;;
1154;SDS011;566;48.414;9.118;2023-06-14T08:34:32;8.73;;;4.38;;
1154;SDS011;566;48.414;9.118;2023-06-14T08:36:58;10.00;;;5.00;;
1154;SDS011;566;48.414;9.118;2023-06-14T08:39:23;8.07;;;4.15;;
1154;SDS011;566;48.414;9.118;2023-06-14T08:41:49;9.65;;;4.72;;
1154;SDS011;566;48.414;9.118;2023-06-14T08:44:18;10.75;;;4.95;;
1154;SDS011;566;48.414;9.118;2023-06-14T08:46:44;10.32;;;4.38;;
1154;SDS011;566;48.414;9.118;2023-06-14T08:49:12;9.98;;;5.13;;
1154;SDS011;566;48.414;9.118;2023-06-14T08:51:39;10.10;;;4.97;;
1154;SDS011;566;48.414;9.118;2023-06-14T08:54:05;8.48;;;4.75;;
1154;SDS011;566;48.414;9.118;2023-06-14T08:56:32;8.95;;;5.15;;
1154;SDS011;566;48.414;9.118;2023-06-14T08:58:59;5.72;;;3.75;;
1154;SDS011;566;48.414;9.118;2023-06-14T09:01:28;9.27;;;4.53;;
1154;SDS011;566;48.414;9.118;2023-06-14T09:03:59;7.97;;;4.53;;
1154;SDS011;566;48.414;9.118;2023-06-14T09:06:24;7.90;;;4.68;;
1154;SDS011;566;48.414;9.118;2023-06-14T09:08:53;9.48;;;4.90;;
1154;SDS011;566;48.414;9.118;2023-06-14T09:11:22;7.25;;;4.20;;
1154;SDS011;566;48.414;9.118;2023-06-14T09:13:48;13.80;;;4.60;;
1154;SDS011;566;48.414;9.118;2023-06-14T09:16:15;8.68;;;4.50;;
1154;SDS011;566;48.414;9.118;2023-06-14T09:18:44;9.60;;;4.72;;
1154;SDS011;566;48.414;9.118;2023-06-14T09:21:12;9.07;;;4.60;;
1154;SDS011;566;48.414;9.118;2023-06-14T09:23:40;7.38;;;3.97;;
1154;SDS011;566;48.414;9.118;2023-06-14T09:26:10;8.75;;;4.05;;
1154;SDS011;566;48.414;9.118;2023-06-14T09:28:45;9.00;;;4.38;;
1154;SDS011;566;48.414;9.118;2023-06-14T09:31:16;6.68;;;3.78;;
1154;SDS011;566;48.414;9.118;2023-06-14T09:33:43;8.95;;;4.88;;
1154;SDS011;566;48.414;9.118;2023-06-14T09:36:22;6.75;;;4.03;;
1154;SDS011;566;48.414;9.118;2023-06-14T09:39:00;10.82;;;4.95;;
1154;SDS011;566;48.414;9.118;2023-06-14T09:41:33;10.32;;;4.10;;
1154;SDS011;566;48.414;9.118;2023-06-14T09:44:03;11.32;;;4.80;;
1154;SDS011;566;48.414;9.118;2023-06-14T09:46:31;10.77;;;4.25;;
1154;SDS011;566;48.414;9.118;2023-06-14T09:49:00;10.65;;;4.40;;
1154;SDS011;566;48.414;9.118;2023-06-14T09:51:27;8.20;;;4.32;;
1154;SDS011;566;48.414;9.118;2023-06-14T09:53:55;11.70;;;4.32;;
1154;SDS011;566;48.414;9.118;2023-06-14T09:56:28;7.05;;;3.90;;
1154;SDS011;566;48.414;9.118;2023-06-14T09:58:56;6.95;;;3.90;;
1154;SDS011;566;48.414;9.118;2023-06-14T10:01:22;7.35;;;4.53;;
1154;SDS011;566;48.414;9.118;2023-06-14T10:03:50;6.47;;;4.20;;
1154;SDS011;566;48.414;9.118;2023-06-14T10:06:26;11.63;;;4.60;;
1154;SDS011;566;48.414;9.118;2023-06-14T10:08:53;10.40;;;4.78;;
1154;SDS011;566;48.414;9.118;2023-06-14T10:11:22;8.88;;;4.90;;
1154;SDS011;566;48.414;9.118;2023-06-14T10:13:49;7.80;;;3.92;;
1154;SDS011;566;48.414;9.118;2023-06-14T10:16:27;7.07;;;4.00;;
1154;SDS011;566;48.414;9.118;2023-06-14T10:24:03;7.00;;;4.03;;
1154;SDS011;566;48.414;9.118;2023-06-14T10:26:32;8.57;;;4.30;;
1154;SDS011;566;48.414;9.118;2023-06-14T10:29:01;8.93;;;4.13;;
1154;SDS011;566;48.414;9.118;2023-06-14T10:31:40;8.35;;;4.20;;
1154;SDS011;566;48.414;9.118;2023-06-14T10:34:10;9.38;;;4.60;;
1154;SDS011;566;48.414;9.118;2023-06-14T10:36:38;7.47;;;4.25;;
1154;SDS011;566;48.414;9.118;2023-06-14T10:39:15;7.13;;;4.10;;
1154;SDS011;566;48.414;9.118;2023-06-14T10:41:51;11.43;;;4.05;;
1154;SDS011;566;48.414;9.118;2023-06-14T10:46:52;7.20;;;4.20;;
1154;SDS011;566;48.414;9.118;2023-06-14T10:49:18;7.43;;;4.30;;
1154;SDS011;566;48.414;9.118;2023-06-14T10:51:45;7.00;;;4.18;;
1154;SDS011;566;48.414;9.118;2023-06-14T10:54:15;9.18;;;4.15;;
1154;SDS011;566;48.414;9.118;2023-06-14T10:56:47;9.93;;;3.53;;
1154;SDS011;566;48.414;9.118;2023-06-14T10:59:14;6.97;;;4.03;;
1154;SDS011;566;48.414;9.118;2023-06-14T11:01:41;6.13;;;4.05;;
1154;SDS011;566;48.414;9.118;2023-06-14T11:04:23;7.30;;;4.43;;
1154;SDS011;566;48.414;9.118;2023-06-14T11:07:25;8.55;;;4.30;;
1154;SDS011;566;48.414;9.118;2023-06-14T11:13:01;10.38;;;4.38;;
1154;SDS011;566;48.414;9.118;2023-06-14T11:15:30;6.53;;;4.53;;
1154;SDS011;566;48.414;9.118;2023-06-14T11:17:56;6.20;;;3.58;;
1154;SDS011;566;48.414;9.118;2023-06-14T11:20:26;7.63;;;3.85;;
1154;SDS011;566;48.414;9.118;2023-06-14T11:22:53;7.72;;;4.22;;
1154;SDS011;566;48.414;9.118;2023-06-14T11:25:19;9.27;;;4.30;;
1154;SDS011;566;48.414;9.118;2023-06-14T11:27:48;6.97;;;4.22;;
1154;SDS011;566;48.414;9.118;2023-06-14T11:30:15;5.85;;;3.80;;
1154;SDS011;566;48.414;9.118;2023-06-14T11:32:41;9.45;;;4.03;;
1154;SDS011;566;48.414;9.118;2023-06-14T11:35:07;8.60;;;4.25;;
1154;SDS011;566;48.414;9.118;2023-06-14T11:37:35;7.57;;;4.15;;
1154;SDS011;566;48.414;9.118;2023-06-14T11:40:02;6.45;;;4.20;;
1154;SDS011;566;48.414;9.118;2023-06-14T11:42:37;7.63;;;4.10;;
1154;SDS011;566;48.414;9.118;2023-06-14T11:45:10;8.23;;;4.63;;
1154;SDS011;566;48.414;9.118;2023-06-14T11:47:37;7.78;;;4.50;;
1154;SDS011;566;48.414;9.118;2023-06-14T11:50:05;8.35;;;3.88;;
1154;SDS011;566;48.414;9.118;2023-06-14T11:52:32;6.70;;;3.70;;
1154;SDS011;566;48.414;9.118;2023-06-14T11:54:57;5.75;;;4.03;;
1154;SDS011;566;48.414;9.118;2023-06-14T11:57:23;7.63;;;3.90;;
1154;SDS011;566;48.414;9.118;2023-06-14T11:59:49;7.70;;;4.20;;
1154;SDS011;566;48.414;9.118;2023-06-14T12:02:15;9.15;;;4.10;;
1154;SDS011;566;48.414;9.118;2023-06-14T12:04:46;8.68;;;4.03;;
1154;SDS011;566;48.414;9.118;2023-06-14T12:07:12;7.88;;;3.70;;
1154;SDS011;566;48.414;9.118;2023-06-14T12:12:22;7.05;;;3.97;;
1154;SDS011;566;48.414;9.118;2023-06-14T12:14:52;5.93;;;3.80;;
1154;SDS011;566;48.414;9.118;2023-06-14T12:17:21;8.45;;;4.15;;
1154;SDS011;566;48.414;9.118;2023-06-14T12:19:48;6.45;;;3.92;;
1154;SDS011;566;48.414;9.118;2023-06-14T12:22:15;7.70;;;3.90;;
1154;SDS011;566;48.414;9.118;2023-06-14T12:24:44;8.07;;;3.65;;
1154;SDS011;566;48.414;9.118;2023-06-14T12:27:11;6.90;;;4.00;;
1154;SDS011;566;48.414;9.118;2023-06-14T12:29:40;8.30;;;4.22;;
1154;SDS011;566;48.414;9.118;2023-06-14T12:32:08;6.95;;;4.03;;
1154;SDS011;566;48.414;9.118;2023-06-14T12:34:34;7.72;;;3.90;;
1154;SDS011;566;48.414;9.118;2023-06-14T12:37:03;10.23;;;4.53;;
1154;SDS011;566;48.414;9.118;2023-06-14T12:39:29;5.88;;;4.10;;
1154;SDS011;566;48.414;9.118;2023-06-14T12:41:56;5.82;;;4.10;;
1154;SDS011;566;48.414;9.118;2023-06-14T12:44:22;8.25;;;4.18;;
1154;SDS011;566;48.414;9.118;2023-06-14T12:46:48;7.53;;;4.10;;
1154;SDS011;566;48.414;9.118;2023-06-14T12:49:16;6.78;;;4.10;;
1154;SDS011;566;48.414;9.118;2023-06-14T12:51:42;9.55;;;3.90;;
1154;SDS011;566;48.414;9.118;2023-06-14T12:54:07;7.70;;;4.22;;
1154;SDS011;566;48.414;9.118;2023-06-14T12:56:33;9.05;;;4.38;;
1154;SDS011;566;48.414;9.118;2023-06-14T12:58:59;8.15;;;4.50;;
1154;SDS011;566;48.414;9.118;2023-06-14T13:01:25;10.85;;;4.07;;
1154;SDS011;566;48.414;9.118;2023-06-14T13:03:51;12.07;;;4.55;;
1154;SDS011;566;48.414;9.118;2023-06-14T13:06:20;6.85;;;3.90;;
1154;SDS011;566;48.414;9.118;2023-06-14T13:08:46;10.85;;;4.05;;
1154;SDS011;566;48.414;9.118;2023-06-14T13:11:11;7.35;;;4.07;;
1154;SDS011;566;48.414;9.118;2023-06-14T13:13:37;8.32;;;4.20;;
1154;SDS011;566;48.414;9.118;2023-06-14T13:16:02;7.93;;;4.05;;
1154;SDS011;566;48.414;9.118;2023-06-14T13:18:28;7.00;;;3.75;;
1154;SDS011;566;48.414;9.118;2023-06-14T13:20:56;8.10;;;4.50;;
1154;SDS011;566;48.414;9.118;2023-06-14T13:23:21;8.10;;;4.18;;
1154;SDS011;566;48.414;9.118;2023-06-14T13:25:47;8.02;;;4.32;;
1154;SDS011;566;48.414;9.118;2023-06-14T13:28:15;8.77;;;4.05;;
1154;SDS011;566;48.414;9.118;2023-06-14T13:30:40;9.38;;;3.67;;
1154;SDS011;566;48.414;9.118;2023-06-14T13:33:06;7.85;;;3.60;;
1154;SDS011;566;48.414;9.118;2023-06-14T13:35:33;6.45;;;3.30;;
1154;SDS011;566;48.414;9.118;2023-06-14T13:37:58;6.05;;;3.72;;
1154;SDS011;566;48.414;9.118;2023-06-14T13:40:24;6.25;;;3.92;;
1154;SDS011;566;48.414;9.118;2023-06-14T13:42:50;6.22;;;3.88;;
1154;SDS011;566;48.414;9.118;2023-06-14T13:45:15;6.72;;;4.03;;
1154;SDS011;566;48.414;9.118;2023-06-14T13:47:41;7.15;;;4.00;;
1154;SDS011;566;48.414;9.118;2023-06-14T13:50:07;6.57;;;3.97;;
1154;SDS011;566;48.414;9.118;2023-06-14T13:52:33;8.07;;;3.78;;
1154;SDS011;566;48.414;9.118;2023-06-14T13:54:59;7.40;;;4.07;;
1154;SDS011;566;48.414;9.118;2023-06-14T13:57:25;7.13;;;3.95;;
1154;SDS011;566;48.414;9.118;2023-06-14T13:59:50;8.55;;;4.07;;
1154;SDS011;566;48.414;9.118;2023-06-14T14:02:17;5.38;;;3.45;;
1154;SDS011;566;48.414;9.118;2023-06-14T14:04:45;6.47;;;3.83;;
1154;SDS011;566;48.414;9.118;2023-06-14T14:07:18;8.65;;;3.97;;
1154;SDS011;566;48.414;9.118;2023-06-14T14:09:45;10.00;;;4.43;;
1154;SDS011;566;48.414;9.118;2023-06-14T14:12:13;6.22;;;3.72;;
1154;SDS011;566;48.414;9.118;2023-06-14T14:14:39;8.18;;;3.95;;
1154;SDS011;566;48.414;9.118;2023-06-14T14:17:05;6.70;;;3.70;;
1154;SDS011;566;48.414;9.118;2023-06-14T14:19:31;8.27;;;4.00;;
1154;SDS011;566;48.414;9.118;2023-06-14T14:21:57;6.88;;;3.60;;
1154;SDS011;566;48.414;9.118;2023-06-14T14:24:23;5.38;;;3.40;;
1154;SDS011;566;48.414;9.118;2023-06-14T14:26:48;10.10;;;3.50;;
1154;SDS011;566;48.414;9.118;2023-06-14T14:29:17;7.70;;;4.00;;
1154;SDS011;566;48.414;9.118;2023-06-14T14:31:42;9.00;;;4.13;;
1154;SDS011;566;48.414;9.118;2023-06-14T14:34:08;5.55;;;3.63;;
1154;SDS011;566;48.414;9.118;2023-06-14T14:36:33;6.97;;;3.97;;
1154;SDS011;566;48.414;9.118;2023-06-14T14:39:05;6.97;;;3.60;;
1154;SDS011;566;48.414;9.118;2023-06-14T14:41:32;8.27;;;3.58;;
1154;SDS011;566;48.414;9.118;2023-06-14T14:43:57;6.20;;;3.45;;
1154;SDS011;566;48.414;9.118;2023-06-14T14:46:24;7.43;;;3.97;;
1154;SDS011;566;48.414;9.118;2023-06-14T14:48:50;7.18;;;3.17;;
1154;SDS011;566;48.414;9.118;2023-06-14T14:51:15;5.80;;;3.85;;
1154;SDS011;566;48.414;9.118;2023-06-14T14:53:41;7.32;;;3.70;;
1154;SDS011;566;48.414;9.118;2023-06-14T14:56:09;9.15;;;3.53;;
1154;SDS011;566;48.414;9.118;2023-06-14T14:58:36;6.32;;;3.50;;
1154;SDS011;566;48.414;9.118;2023-06-14T15:01:02;8.20;;;3.55;;
1154;SDS011;566;48.414;9.118;2023-06-14T15:03:28;8.90;;;3.83;;
1154;SDS011;566;48.414;9.118;2023-06-14T15:05:53;7.88;;;3.95;;
1154;SDS011;566;48.414;9.118;2023-06-14T15:08:22;10.25;;;4.35;;
1154;SDS011;566;48.414;9.118;2023-06-14T15:10:47;8.13;;;3.80;;
1154;SDS011;566;48.414;9.118;2023-06-14T15:13:13;8.27;;;4.00;;
1154;SDS011;566;48.414;9.118;2023-06-14T15:15:39;5.53;;;3.42;;
1154;SDS011;566;48.414;9.118;2023-06-14T15:18:08;6.28;;;3.58;;
1154;SDS011;566;48.414;9.118;2023-06-14T15:20:34;8.20;;;4.00;;
1154;SDS011;566;48.414;9.118;2023-06-14T15:23:00;7.93;;;3.65;;
1154;SDS011;566;48.414;9.118;2023-06-14T15:25:28;8.23;;;3.90;;
1154;SDS011;566;48.414;9.118;2023-06-14T15:27:55;7.35;;;3.88;;
1154;SDS011;566;48.414;9.118;2023-06-14T15:30:21;9.77;;;4.20;;
1154;SDS011;566;48.414;9.118;2023-06-14T15:32:47;6.90;;;3.83;;
1154;SDS011;566;48.414;9.118;2023-06-14T15:35:13;6.55;;;3.58;;
1154;SDS011;566;48.414;9.118;2023-06-14T15:37:41;6.63;;;3.72;;
1154;SDS011;566;48.414;9.118;2023-06-14T15:40:07;10.43;;;3.70;;
1154;SDS011;566;48.414;9.118;2023-06-14T15:42:33;7.95;;;4.03;;